Terminal Aerodrome Forecast
Issued by NWS

Home | Current Version | Previous Version | Text Only | Print | Product List | Glossary On
Versions: 1 2 3 4 5 6 7 8 9 10 11 12 13 14 15 16 17 18 19
817
FTUS43 KSGF 202320
TAFJLN
TAF
KJLN 202320Z 2100/2124 22008KT P6SM SKC
     FM210100 14006KT P6SM FEW250
     FM210400 08005KT P6SM SCT150
     FM211000 07007KT 5SM BR VCSH BKN040 BKN080
     FM211700 06009KT P6SM BKN015=

USA.gov is the U.S. government's official web portal to all federal, state and local government web resources and services.